Terminal Aerodrome Forecast
Issued by NWS Charleston, WV

Current Version | Previous Version | Text Only | Print | Product List | Glossary Off
Versions: 1 2 3 4 5 6 7 8 9 10 11 12 13 14 15 16 17 18 19 20 21 22 23 24 25 26 27

251
FTUS41 KRLX 240436 AAD
TAFBKW
TAF AMD
KBKW 240436Z 2405/2424 11010KT 6SM -RA OVC060
      TEMPO 2405/2409 4SM -SHRA BR BKN008 OVC025
     FM240900 12010G18KT 4SM RA BR OVC005
     FM241200 10010G19KT 6SM -RA OVC015=

USA.gov is the U.S. government's official web portal to all federal, state and local government web resources and services.